Tiempo atmosférico en la estación meteorológica de Lekeitio, Bizkaia (12 m.)



Fecha
DESCASC
Temp. máxima en grados centígrados (hora)
DESCASC
Temp. mínima en grados centígrados (hora)
DESCASC
Temp. media en grados centígrados
DESCASC
Racha de viento máxima en m/sg (hora)
DESCASC
Velocidad máxima media en intervalos de 10 minutos(hora)
DESCASC
Precipitaciones diarias en mm
DESCASC
Precipitaciones de 00:00 a 06:00 en mm
DESCASC
Precipitaciones de 06:00 a 12:00 en mm
DESCASC
Precipitaciones de 12:00 a 18:00 en mm
DESCASC
Precipitaciones de 18:00 a 24:00 en mm
DESCASC
22-01-2020 9.4 (01:00) 3.8 (21:10) 6.6 8.89 (02:40) 4.44 (05:20) -- -- -- -- --
21-01-2020 9.2 (23:50) 4.8 (04:40) 7 10.83 (07:00) 4.72 (14:40) -- -- -- -- --
20-01-2020 7.2 (20:50) 3.9 (11:50) 5.5 20 (00:50) 6.11 (00:40) -- -- -- -- --
19-01-2020 9.7 (00:10) 6.5 (00:00) 8.1 19.44 (23:50) 9.17 (04:00) -- -- -- -- --
18-01-2020 16.2 (15:30) 7.4 (00:00) 11.8 18.89 (18:50) 9.44 (18:20) -- -- -- -- --
17-01-2020 16 (00:20) 7.4 (00:00) 11.7 19.72 (16:30) 14.17 (07:10) -- -- -- -- --
16-01-2020 18.3 (14:10) 9.9 (00:00) 14.1 18.89 (08:00) 8.61 (08:10) -- -- -- -- --
15-01-2020 16.1 (13:50) 9.6 (00:00) 12.9 19.72 (04:10) 10 (05:40) -- -- -- -- --
14-01-2020 16.1 (16:30) 11.3 (00:00) 13.7 20 (07:20) 9.17 (07:10) -- -- -- -- --
13-01-2020 14.6 (15:50) 5.2 (00:00) 9.9 13.89 (22:00) 6.94 (22:00) -- -- -- -- --
12-01-2020 12.2 (16:00) 4.5 (00:00) 8.3 5.83 (02:20) 3.89 (23:00) -- -- -- -- --
11-01-2020 11.7 (16:10) 4.6 (00:00) 8.1 5.56 (14:30) 3.61 (00:30) -- -- -- -- --
10-01-2020 11.7 (15:10) 7.5 (00:00) 9.6 19.72 (14:00) 12.5 (11:00) -- -- -- -- --
09-01-2020 17.4 (16:20) 10.1 (00:00) 13.8 31.67 (16:50) 20.56 (17:00) -- -- -- -- --
08-01-2020 13.2 (14:40) 7.5 (00:00) 10.3 6.39 (22:00) 5 (22:00) -- -- -- -- --
07-01-2020 12.5 (16:10) 7.3 (00:00) 9.9 6.39 (19:30) 5 (11:40) -- -- -- -- --
06-01-2020 11.2 (14:50) 2.1 (00:00) 6.6 13.06 (15:50) 10 (15:20) -- -- -- -- --
05-01-2020 10 (16:10) 4.8 (00:00) 7.4 5.28 (10:40) 3.61 (10:00) -- -- -- -- --
04-01-2020 11 (02:10) 9 (00:00) 10 10.28 (03:10) 7.78 (03:10) -- -- -- -- --
03-01-2020 12.6 (11:40) 6.1 (00:00) 9.4 8.33 (12:20) 4.72 (12:20) -- -- -- -- --
02-01-2020 12.3 (16:10) 3.9 (00:00) 8.1 5.56 (17:20) 3.61 (17:30) -- -- -- -- --
01-01-2020 12.6 (15:30) 6.8 (00:00) 9.7 5.83 (12:10) 4.17 (09:40) -- -- -- -- --
31-12-2019 11.9 (15:10) 6.3 (00:00) 9.1 5.83 (01:10) 3.33 (23:10) -- -- -- -- --
30-12-2019 11.4 (16:00) 4.1 (00:00) 7.7 4.44 (23:30) 3.61 (23:30) -- -- -- -- --
29-12-2019 10.8 (15:50) 3.8 (00:00) 7.3 4.72 (02:10) 3.33 (02:10) -- -- -- -- --
28-12-2019 9.7 (13:50) 5.8 (00:00) 7.8 6.11 (08:10) 4.72 (08:10) -- -- -- -- --
27-12-2019 11.7 (15:30) 5.7 (00:00) 8.7 6.39 (18:10) 5 (17:40) -- -- -- -- --
26-12-2019 20.1 (02:30) 7.3 (00:00) 13.7 22.78 (03:10) 17.5 (03:10) -- -- -- -- --
25-12-2019 19.9 (21:40) 2.3 (00:00) 11.1 11.67 (21:30) 7.22 (21:40) -- -- -- -- --

Gráficas

Temp. máximas Temp. mínimas Temp. medias Precipitaciones Rachas de viento máximas Velocidades máximas media en intervalos de 10 minutos

Datos horarios

Fecha y hora oficial Temperatura (ºC) Velocidad del viento (km/h) Dirección del viento Racha (km/h) Dirección de racha Precipitación (mm) Presión (hPa) Tendencia (hPa) Humedad (%)
2020-01-23 23:00:00 8.8 23 Sur 48 Sur -- 1011.6 0.4 78
2020-01-23 22:00:00 8.1 23 Sur 41 Sudeste -- 1011.6 0.3 78
2020-01-23 21:00:00 6.3 16 Sudeste 37 Sur -- 1011.5 0.3 80
2020-01-23 20:00:00 8.2 15 Sur 25 Sudeste -- 1011.2 0.2 87
2020-01-23 19:00:00 8.6 12 Sudeste 22 Sudeste -- 1011.3 0.8 93
2020-01-23 18:00:00 9.6 6 Sudeste 18 Sudeste -- 1011.2 0.4 93
2020-01-23 17:00:00 9.3 5 Sudeste 8 Sudeste -- 1011 -0.6 92
2020-01-23 16:00:00 9.2 6 Sudeste 8 Sudeste -- 1010.5 -1.8 92
2020-01-23 15:00:00 9.5 0 Calma 7 Sur -- 1010.8 -2.2 92
2020-01-23 14:00:00 3 5 Sur 8 Sur -- 1011.6 -0.9 92
2020-01-23 13:00:00 4.8 7 Sur 14 Sur -- 1012.3 -0.2 92
2020-01-23 12:00:00 4 12 Sur 15 Sur -- 1013 0.5 94
2020-01-23 11:00:00 3.9 9 Sur 15 Sur -- 1012.5 0.1 94
2020-01-23 10:00:00 4.1 9 Sur 13 Sur -- 1012.5 0.5 93
2020-01-23 09:00:00 4 8 Sudeste 15 Sur -- 1012.5 0.1 92
2020-01-23 08:00:00 3.5 9 Sur 15 Sur -- 1012.4 0 93
2020-01-23 07:00:00 2.4 14 Sudeste 20 Sur -- 1012 -0.8 94
2020-01-23 06:00:00 3 13 Sur 22 Sur -- 1012.4 -0.2 95
2020-01-23 05:00:00 2.9 9 Sur 18 Sur -- 1012.4 -0.5 95
2020-01-23 04:00:00 2.9 8 Sur 12 Sur -- 1012.8 -0.5 95
2020-01-23 03:00:00 3.5 8 Sur 14 Sur -- 1012.6 -1.2 95
2020-01-23 02:00:00 7.7 7 Sur 12 Sur -- 1012.9 -0.8 95
2020-01-23 01:00:00 7.7 3 Sur 13 Sur -- 1013.3 -0.7 95
2020-01-23 00:00:00 4.3 4 Sudoeste 10 Oeste -- 1013.8 -0.3 95
2020-01-22 23:00:00 5.3 8 Oeste 13 Sudoeste -- 1013.7 -0.2 93
2020-01-22 22:00:00 4.7 5 Sudeste 8 Este -- 1014 -0.5 95
2020-01-22 21:00:00 5 4 Sudeste 10 Oeste -- 1014.1 -0.4 94
2020-01-22 20:00:00 5.6 0 Calma 12 Sudoeste -- 1013.9 -0.8 94
2020-01-22 19:00:00 7.8 6 Sur 9 Sur -- 1014.5 -0.8 94
2020-01-22 18:00:00 7 0 Calma 15 Este -- 1014.5 -0.8 92
2020-01-22 17:00:00 9 6 Nordeste 13 Nordeste -- 1014.7 -1.2 94
2020-01-22 16:00:00 8.9 2 Oeste 13 Oeste -- 1015.3 -1.6 94
2020-01-22 15:00:00 8.4 8 Oeste 21 Noroeste -- 1015.3 -2.1 94
2020-01-22 14:00:00 8.3 7 Noroeste 14 Noroeste -- 1015.9 -1.6 94
2020-01-22 13:00:00 7.4 4 Sur 9 Sur -- 1016.9 -0.5 93
2020-01-22 12:00:00 7.6 2 Sur 10 Sur -- 1017.4 0.1 93
2020-01-22 11:00:00 7.9 7 Sur 12 Sur -- 1017.5 0.3 92
2020-01-22 10:00:00 6.7 6 Sudeste 14 Sur -- 1017.4 0.3 91
2020-01-22 09:00:00 8.1 9 Sur 15 Sudeste -- 1017.3 0 90
2020-01-22 08:00:00 8.1 9 Sur 20 Sudeste -- 1017.2 -0.7 90
2020-01-22 07:00:00 8.7 10 Sudeste 21 Sudeste -- 1017.1 -1.3 89
2020-01-22 06:00:00 8.2 13 Sudeste 25 Sudeste -- 1017.3 -1.2 89
2020-01-22 05:00:00 8.6 11 Sudeste 27 Sudeste -- 1017.9 -1.1 89
2020-01-22 04:00:00 8.9 11 Sudeste 30 Sudeste -- 1018.4 -1 89
2020-01-22 03:00:00 9 7 Este 32 Este -- 1018.5 -1.4 89
2020-01-22 02:00:00 9.3 4 Este 23 Este -- 1019 -1.2 89
2020-01-22 01:00:00 9.3 5 Sudeste 21 Este -- 1019.4 -1.1 86
2020-01-22 00:00:00 9.2 5 Este 23 Nordeste -- 1019.9 -1.1 85
2020-01-21 23:00:00 9 10 Norte 24 Norte -- 1020.2 -1.1 86
2020-01-21 22:00:00 8.1 13 Oeste 19 Oeste -- 1020.5 -0.9 88
2020-01-21 21:00:00 7 4 Oeste 14 Noroeste -- 1021 -0.5 90
2020-01-21 20:00:00 6.6 5 Sur 20 Sur -- 1021.3 -0.5 90
2020-01-21 19:00:00 6.3 11 Sur 18 Sudeste -- 1021.4 -0.7 90
2020-01-21 18:00:00 5.7 7 Sur 17 Sur -- 1021.5 -0.9 91
2020-01-21 17:00:00 5.6 10 Sur 19 Sur -- 1021.8 -1.1 91
2020-01-21 16:00:00 5.5 11 Sur 22 Sudeste -- 1022.1 -1.5 91
2020-01-21 15:00:00 5.5 14 Sudeste 24 Sudeste -- 1022.4 -1.8 91
2020-01-21 14:00:00 5.8 12 Sudeste 24 Sudeste -- 1022.9 -1.8 91
2020-01-21 13:00:00 5.8 11 Sudeste 24 Este -- 1023.6 -1.3 91
2020-01-21 12:00:00 6.1 8 Sudeste 24 Sudeste -- 1024.2 -0.9 89
2020-01-21 11:00:00 6 7 Sudeste 24 Sur -- 1024.7 -0.4 89
2020-01-21 10:00:00 5.9 11 Sudeste 28 Este -- 1024.9 -0.1 88
2020-01-21 09:00:00 6.4 5 Este 28 Norte -- 1025.1 0.2 87
2020-01-21 08:00:00 6.7 8 Este 35 Nordeste -- 1025.1 -0.3 87
2020-01-21 07:00:00 6.5 8 Este 39 Nordeste -- 1025 -0.9 83
2020-01-21 06:00:00 5.7 9 Sudeste 27 Sudeste -- 1024.9 -1.3 86
2020-01-21 05:00:00 5.2 8 Este 20 Este -- 1025.4 -1.2 86
2020-01-21 04:00:00 5.6 7 Sudeste 19 Este -- 1025.9 -1.3 83
2020-01-21 03:00:00 6.1 4 Este 22 Este -- 1026.2 -1.4 80
2020-01-21 02:00:00 6.4 5 Este 26 Nordeste -- 1026.6 -0.8 80
2020-01-21 01:00:00 6.6 7 Este 29 Este -- 1027.2 -0.2 79
2020-01-21 00:00:00 6.7 6 Este 31 Este -- 1027.6 0 74
2020-01-20 23:00:00 6.9 8 Este 32 Norte -- 1027.4 -0.2 74
2020-01-20 22:00:00 6.6 7 Este 31 Nordeste -- 1027.4 0 74
2020-01-20 21:00:00 6.9 7 Este 35 Nordeste -- 1027.6 0.4 74
2020-01-20 20:00:00 6.5 5 Nordeste 13 Nordeste -- 1027.6 0.3 78
2020-01-20 19:00:00 6.4 4 Este 26 Nordeste -- 1027.4 -0.1 79
2020-01-20 18:00:00 5.9 10 Norte 26 Norte -- 1027.2 -0.5 81
2020-01-20 17:00:00 5.2 4 Norte 15 Norte -- 1027.3 -0.6 86
2020-01-20 16:00:00 5.1 4 Nordeste 14 Este -- 1027.5 -1.1 84
2020-01-20 15:00:00 4.8 5 Este 19 Este -- 1027.7 -1.3 86
2020-01-20 14:00:00 4.6 4 Este 17 Sudeste -- 1027.9 -0.9 87
2020-01-20 13:00:00 4.3 8 Sudeste 29 Sudeste -- 1028.6 0.1 87
2020-01-20 12:00:00 4 9 Sudeste 40 Sudeste -- 1029 0.7 87
2020-01-20 11:00:00 4.5 11 Sudeste 39 Este -- 1028.8 0.9 89
2020-01-20 10:00:00 4.2 10 Sudeste 66 Nordeste -- 1028.5 0.7 87
2020-01-20 09:00:00 4.5 8 Sudeste 37 Este -- 1028.3 0.2 87
2020-01-20 08:00:00 4.8 8 Sudeste 42 Este -- 1027.9 -0.3 87
2020-01-20 07:00:00 5.7 9 Este 44 Este -- 1027.8 -1 84
2020-01-20 06:00:00 5.8 13 Este 45 Nordeste -- 1028.1 -1.1 82
2020-01-20 05:00:00 5.7 10 Este 46 Este -- 1028.2 -1.6 81
2020-01-20 04:00:00 6.1 10 Nordeste 56 Nordeste -- 1028.8 -1.6 80
2020-01-20 03:00:00 6.1 15 Nordeste 48 Este -- 1029.2 -1 78
2020-01-20 02:00:00 6.3 17 Este 64 Sudeste -- 1029.8 -0.3 78
2020-01-20 01:00:00 6.7 17 Este 72 Nordeste -- 1030.4 0.3 78
2020-01-20 00:00:00 6.8 16 Nordeste 70 Nordeste -- 1030.2 0.9 78
2020-01-19 23:00:00 7.1 21 Este 68 Este -- 1030.1 1.5 76
2020-01-19 22:00:00 7.1 21 Nordeste 62 Nordeste -- 1030.1 2.1 78
2020-01-19 21:00:00 7.5 23 Nordeste 58 Nordeste -- 1029.3 1.9 78
2020-01-19 20:00:00 7.7 32 Nordeste 57 Nordeste -- 1028.6 1.3 76
2020-01-19 19:00:00 8 29 Nordeste 51 Norte -- 1028 1.2 71
2020-01-19 18:00:00 8.3 28 Nordeste 47 Nordeste -- 1027.4 0.6 71
2020-01-19 17:00:00 8.1 25 Nordeste 48 Nordeste -- 1027.3 0.4 74
2020-01-19 16:00:00 7.8 27 Norte 69 Nordeste -- 1026.8 -0.2 72
2020-01-19 15:00:00 7.7 24 Nordeste 42 Nordeste -- 1026.8 -0.2 77
2020-01-19 14:00:00 7.8 20 Nordeste 39 Nordeste -- 1026.9 1 76
2020-01-19 13:00:00 7.6 16 Nordeste 37 Nordeste -- 1027 2.4 81
2020-01-19 12:00:00 7.9 23 Nordeste 38 Nordeste -- 1027 3.8 83
2020-01-19 11:00:00 7.9 16 Nordeste 38 Nordeste -- 1025.9 4.2 80
2020-01-19 10:00:00 7.6 14 Nordeste 38 Este -- 1024.6 4.3 82
2020-01-19 09:00:00 7.9 17 Nordeste 35 Nordeste -- 1023.2 3.7 83
2020-01-19 08:00:00 8.5 14 Nordeste 34 Nordeste -- 1021.7 3.4 87
2020-01-19 07:00:00 8.7 15 Nordeste 37 Este -- 1020.3 3.4 88
2020-01-19 06:00:00 8.8 12 Nordeste 40 Este -- 1019.5 3.1 88
2020-01-19 05:00:00 8.7 17 Este 66 Nordeste -- 1018.3 2.7 86
2020-01-19 04:00:00 8.2 33 Nordeste 54 Nordeste -- 1016.9 2 93
2020-01-19 03:00:00 7.9 26 Norte 44 Norte -- 1016.4 2.5 96
2020-01-19 02:00:00 8.5 21 Norte 29 Norte -- 1015.6 1.7 95
2020-01-19 01:00:00 9.1 13 Noroeste 33 Noroeste -- 1014.9 1 94
2020-01-19 00:00:00 9.5 14 Oeste 32 Noroeste -- 1013.9 0.2 92
2020-01-18 23:00:00 8.8 9 Oeste 25 Noroeste -- 1013.9 0.9 94
2020-01-18 22:00:00 7.7 11 Sur 18 Sur -- 1013.9 1 95
2020-01-18 21:00:00 8.1 14 Sur 24 Noroeste -- 1013.7 2.2 94
2020-01-18 20:00:00 8.8 14 Oeste 43 Oeste -- 1013 4.5 88
2020-01-18 19:00:00 8.9 20 Oeste 68 Noroeste -- 1012.9 3.9 91
2020-01-18 18:00:00 11.8 27 Oeste 59 Noroeste -- 1011.5 1.8 84
2020-01-18 17:00:00 13.7 14 Sudeste 35 Sudeste -- 1008.5 -2.2 66
2020-01-18 16:00:00 15 13 Sudeste 36 Sudeste -- 1009 -3.9 58
2020-01-18 15:00:00 15.3 13 Sudeste 42 Sudeste -- 1009.7 -5.5 56
2020-01-18 14:00:00 14.3 19 Sudeste 44 Sudeste -- 1010.7 -5.3 54
2020-01-18 13:00:00 14 22 Sudeste 45 Sur -- 1012.9 -4.1 53
2020-01-18 12:00:00 13.4 17 Sudeste 39 Sur -- 1015.2 -2.9 53
2020-01-18 11:00:00 12.2 13 Sudeste 36 Sudeste -- 1016 -3.2 62
2020-01-18 10:00:00 10.4 11 Sudeste 25 Este -- 1017 -2.6 75
2020-01-18 09:00:00 8.3 14 Sudeste 19 Sur -- 1018.1 -2.7 80
2020-01-18 08:00:00 7.9 14 Sur 21 Sur -- 1019.2 -2.3 82
2020-01-18 07:00:00 7.8 17 Sur 21 Sudeste -- 1019.6 -2.6 83
2020-01-18 06:00:00 7.9 16 Sur 19 Sudeste -- 1020.8 -2.3 85
2020-01-18 05:00:00 7.7 13 Sur 28 Sur -- 1021.5 -2.2 87
2020-01-18 04:00:00 7.6 14 Sur 20 Sur -- 1022.2 -2.1 88
2020-01-18 03:00:00 7.8 12 Sur 18 Sur -- 1023.1 -1.7 89
2020-01-18 02:00:00 7.6 12 Sur 17 Sur -- 1023.7 -1.7 91
2020-01-18 01:00:00 7.6 11 Sur 17 Sur -- 1024.3 -1.2 91
2020-01-18 00:00:00 7.4 9 Sur 17 Sur -- 1024.8 -1 93
2020-01-17 23:00:00 8.8 13 Sudoeste 17 Sudoeste -- 1025.4 -0.1 91
2020-01-17 22:00:00 8.6 10 Sur 15 Sur -- 1025.5 0.2 91
2020-01-17 21:00:00 9.6 7 Oeste 27 Oeste -- 1025.8 1.3 81
2020-01-17 20:00:00 9.5 14 Oeste 26 Oeste -- 1025.5 1.6 85
2020-01-17 19:00:00 9.3 14 Oeste 43 Noroeste -- 1025.3 2.5 88
2020-01-17 18:00:00 10.3 18 Noroeste 40 Oeste -- 1024.5 1.8 87
2020-01-17 17:00:00 10.1 26 Noroeste 71 Noroeste -- 1023.9 1.3 86
2020-01-17 16:00:00 10.5 42 Noroeste 63 Noroeste -- 1022.8 0.7 90
2020-01-17 15:00:00 10.7 24 Oeste 47 Noroeste -- 1022.7 0.5 75
2020-01-17 14:00:00 10.5 17 Oeste 46 Noroeste -- 1022.6 1.8 77
2020-01-17 13:00:00 10.2 20 Oeste 48 Oeste -- 1022.1 1.8 83
2020-01-17 12:00:00 9.9 20 Oeste 41 Oeste -- 1022.2 2.4 87
2020-01-17 11:00:00 9.7 15 Oeste 56 Sudoeste -- 1020.8 2.1 84
2020-01-17 10:00:00 9.2 11 Oeste 36 Oeste -- 1020.3 3.4 90
2020-01-17 09:00:00 9 21 Oeste 35 Oeste -- 1019.8 4 93
2020-01-17 08:00:00 8.9 23 Oeste 71 Noroeste -- 1018.7 3.3 94
2020-01-17 07:00:00 11.6 24 Noroeste 54 Noroeste -- 1016.9 1.4 93
2020-01-17 06:00:00 11.7 3 Sudoeste 7 Sudoeste -- 1015.8 1.3 91
2020-01-17 05:00:00 11.9 5 Noroeste 14 Norte -- 1015.4 2.3 93
2020-01-17 04:00:00 13.4 18 Noroeste 39 Noroeste -- 1015.5 3.1 84
2020-01-17 03:00:00 14.4 10 Sudoeste 34 Sudoeste -- 1014.5 1.6 55
2020-01-17 02:00:00 15 16 Sudoeste 57 Sudoeste -- 1013.1 0.7 54
2020-01-17 01:00:00 15.3 15 Sur 44 Sur -- 1012.4 -0.2 54
2020-01-17 00:00:00 15.7 8 Sur 23 Sudeste -- 1012.9 0.5 47
2020-01-16 23:00:00 16.2 5 Este 24 Sudeste -- 1012.4 0.8 47
2020-01-16 22:00:00 17 7 Sudoeste 34 Sudeste -- 1012.6 1.4 45
2020-01-16 21:00:00 16.8 10 Sudoeste 40 Sudoeste -- 1012.4 1.3 50
2020-01-16 20:00:00 16.2 7 Sudeste 21 Este -- 1011.6 0.3 56
2020-01-16 19:00:00 16 8 Sudeste 33 Sudeste -- 1011.2 -0.2 61
2020-01-16 18:00:00 16.2 11 Sudeste 38 Sudeste -- 1011.1 -0.6 60
2020-01-16 17:00:00 16.8 14 Sudeste 32 Sur -- 1011.3 -1.4 56
2020-01-16 16:00:00 16.7 13 Sudeste 30 Sudeste -- 1011.4 -2.1 58
2020-01-16 15:00:00 16.7 14 Sudeste 44 Sudeste -- 1011.7 -2.5 57
2020-01-16 14:00:00 18 14 Sudeste 34 Sur -- 1012.7 -1.1 54
2020-01-16 13:00:00 17.4 10 Sudeste 29 Sur -- 1013.5 0.4 55
2020-01-16 12:00:00 17.2 10 Sudeste 42 Sudeste -- 1014.2 0.7 56
2020-01-16 11:00:00 17.1 15 Sudeste 44 Sudeste -- 1013.8 1.1 56
2020-01-16 10:00:00 15.8 22 Sudeste 42 Sudeste -- 1013.1 0.3 59
2020-01-16 09:00:00 15.2 8 Sudeste 53 Sudeste -- 1013.5 0.4 60
2020-01-16 08:00:00 14.7 26 Sudeste 68 Sudeste -- 1012.7 -0.6 63
2020-01-16 07:00:00 14.4 14 Sudeste 38 Sudeste -- 1012.8 -0.7 67
2020-01-16 06:00:00 14.4 16 Sudeste 35 Sur -- 1013.1 -0.8 67
2020-01-16 05:00:00 14.4 5 Este 43 Sudeste -- 1013.3 -0.7 67
2020-01-16 04:00:00 13.7 20 Sudeste 29 Sur -- 1013.5 -1.3 71
2020-01-16 03:00:00 13.4 22 Sur 35 Sur -- 1013.9 -1 72
2020-01-16 02:00:00 12.1 13 Sur 29 Sudeste -- 1014 -1.6 75
2020-01-16 01:00:00 11.3 9 Sudeste 14 Sudeste -- 1014.8 -1.1 81
2020-01-16 00:00:00 9.9 6 Este 14 Sudeste -- 1014.9 -1.5 90
2020-01-15 23:00:00 9.9 12 Sudeste 17 Sudeste -- 1015.6 -1.4 95
2020-01-15 22:00:00 10.5 14 Sur 20 Sudeste -- 1015.9 -0.4 95
2020-01-15 21:00:00 10.5 14 Sur 19 Sur -- 1016.4 0.5 95
2020-01-15 20:00:00 11.1 5 Sudeste 10 Sur -- 1017 2.1 94
2020-01-15 19:00:00 10.6 6 Sur 8 Sur -- 1016.3 2.5 93
2020-01-15 18:00:00 12 5 Oeste 21 Oeste -- 1015.9 3.2 93
2020-01-15 17:00:00 12.4 13 Noroeste 26 Noroeste -- 1014.9 2.6 93
2020-01-15 16:00:00 13.2 17 Noroeste 26 Oeste -- 1013.8 1.5 91
2020-01-15 15:00:00 15.5 8 Oeste 26 Sudoeste -- 1012.7 0.9 59
2020-01-15 14:00:00 15.9 5 Sudoeste 21 Sur -- 1012.3 2.8 58
2020-01-15 13:00:00 15 5 Oeste 33 Sudoeste -- 1012.3 4.1 59
2020-01-15 12:00:00 15.1 13 Sudoeste 43 Oeste -- 1011.8 5.7 58
2020-01-15 11:00:00 15.1 19 Sudoeste 65 Sudeste -- 1009.5 3.5 56
2020-01-15 10:00:00 14.9 19 Sur 67 Sudeste -- 1008.2 3.3 55
2020-01-15 09:00:00 14.9 26 Sur 68 Sur -- 1006.1 1.7 55
2020-01-15 08:00:00 14.4 19 Sur 60 Sudeste -- 1006 0.7 57
2020-01-15 07:00:00 14.5 32 Sur 68 Sur -- 1004.9 -0.9 58
2020-01-15 06:00:00 14.4 33 Sur 67 Sur -- 1004.4 -2 59
2020-01-15 05:00:00 14.3 29 Sur 71 Sur -- 1005.3 -1.6 60
2020-01-15 04:00:00 14 27 Sur 68 Sur -- 1005.8 -2.3 61
2020-01-15 03:00:00 13.9 5 Nordeste 35 Nordeste -- 1006.4 -2.1 62
2020-01-15 02:00:00 12.7 14 Sudeste 29 Sudeste -- 1006.9 -1.3 65
2020-01-15 01:00:00 12.3 10 Sudeste 20 Sudeste -- 1008.1 0.5 63
2020-01-15 00:00:00 12.7 8 Sudeste 20 Sudeste -- 1008.5 1.5 60
2020-01-14 23:00:00 13.4 8 Sudeste 29 Sudeste -- 1008.2 1.2 57
2020-01-14 22:00:00 13.3 14 Sur 49 Sudeste -- 1007.6 1.3 54
2020-01-14 21:00:00 13.4 24 Sur 71 Sur -- 1007 0.7 53
2020-01-14 20:00:00 13.6 31 Sur 58 Sur -- 1007 0.5 52
2020-01-14 19:00:00 14.2 26 Sur 64 Sur -- 1006.3 -0.2 52
2020-01-14 18:00:00 14.1 24 Sur 58 Sur -- 1006.3 -0.5 52
2020-01-14 17:00:00 14.2 22 Sur 46 Sur -- 1006.5 0.4 51
2020-01-14 16:00:00 15.9 16 Sur 48 Sur -- 1006.5 0.3 49
2020-01-14 15:00:00 14.8 14 Sur 67 Sudeste -- 1006.8 -0.1 53
2020-01-14 14:00:00 14.4 23 Sur 48 Sur -- 1006.1 -1.3 54
2020-01-14 13:00:00 14.7 28 Sur 66 Sur -- 1006.2 -0.2 54
2020-01-14 12:00:00 14.2 25 Sur 71 Sudoeste -- 1006.9 0.8 58
2020-01-14 11:00:00 12.6 28 Sur 55 Sur -- 1007.4 1.3 62
2020-01-14 10:00:00 12 32 Sur 55 Sudoeste -- 1006.4 0.3 61
2020-01-14 09:00:00 12.4 31 Sur 62 Sur -- 1006.1 0.1 59
2020-01-14 08:00:00 11.8 31 Sur 72 Sur -- 1006.1 -0.4 60
2020-01-14 07:00:00 11.7 31 Sur 64 Sur -- 1006.1 -0.8 59
2020-01-14 06:00:00 11.6 29 Sur 69 Sur -- 1006 -1.1 57
2020-01-14 05:00:00 12.1 30 Sur 66 Sur -- 1006.5 -0.8 54
2020-01-14 04:00:00 12 27 Sur 54 Sur -- 1006.9 -0.9 54
2020-01-14 03:00:00 12.1 21 Sur 43 Sur -- 1007.1 -1.6 52
2020-01-14 02:00:00 12.1 22 Sur 43 Sur -- 1007.3 -2 50
2020-01-14 01:00:00 11.5 23 Sur 46 Sur -- 1007.8 -1.1 49
2020-01-14 00:00:00 11.7 23 Sur 47 Sudeste -- 1008.7 -0.2 45
2020-01-13 23:00:00 11.6 17 Sur 37 Sur -- 1009.3 0.6 40
2020-01-13 22:00:00 12.1 25 Sur 50 Sur -- 1008.9 -0.1 39
2020-01-13 21:00:00 11.1 18 Sudeste 34 Sudeste -- 1008.9 -0.5 44
2020-01-13 20:00:00 11.8 17 Sur 31 Sudeste -- 1008.7 -1.1 42
2020-01-13 19:00:00 11.6 13 Sudeste 26 Sur -- 1009 -1.2 42
2020-01-13 18:00:00 12 6 Sur 16 Sur -- 1009.4 -1.2 42
2020-01-13 17:00:00 13 9 Sudeste 27 Sudeste -- 1009.8 -1.8 43
2020-01-13 16:00:00 14.2 23 Sudeste 38 Sudeste -- 1010.2 -2.2 42
2020-01-13 15:00:00 14.1 16 Sur 28 Sudoeste -- 1010.6 -3.3 44
2020-01-13 14:00:00 13.5 6 Sudeste 29 Sudoeste -- 1011.6 -2.6 48
2020-01-13 13:00:00 12.6 15 Sur 26 Sur -- 1012.4 -1.9 52
2020-01-13 12:00:00 13.2 17 Sur 25 Sur -- 1013.9 -0.5 47
2020-01-13 11:00:00 10.8 11 Sur 19 Sur -- 1014.2 -1.1 66
2020-01-13 10:00:00 9.5 12 Sur 23 Sudoeste -- 1014.3 -1.2 69
2020-01-13 09:00:00 9.3 17 Sur 25 Sur -- 1014.4 -1.7 70
2020-01-13 08:00:00 9 15 Sur 22 Sudoeste -- 1015.3 -1.8 75
2020-01-13 07:00:00 8.9 17 Sur 24 Sur -- 1015.5 -2.7 80
2020-01-13 06:00:00 9.1 18 Sur 27 Sur -- 1016.1 -2.9 83
2020-01-13 05:00:00 8.5 14 Sur 21 Sudoeste -- 1017.1 -2.4 87
2020-01-13 04:00:00 7.9 13 Sur 19 Sur -- 1018.2 -2.3 90
2020-01-13 03:00:00 7.3 12 Sur 15 Sur -- 1019 -2.2 92
2020-01-13 02:00:00 5.4 7 Sur 15 Sur -- 1019.5 -1.9 93
2020-01-13 01:00:00 6.4 12 Sur 17 Sur -- 1020.5 -1.3 90
2020-01-13 00:00:00 6 12 Sur 18 Sur -- 1021.2 -1.1 92
2020-01-12 23:00:00 6.7 14 Sur 19 Sur -- 1021.4 -1.4 91
2020-01-12 22:00:00 7.5 12 Sur 21 Sudeste -- 1021.8 -0.9 91
2020-01-12 21:00:00 8.5 13 Sur 19 Sur -- 1022.3 -0.3 91
2020-01-12 20:00:00 8.1 12 Sur 15 Sur -- 1022.8 0.1 92
2020-01-12 19:00:00 8.8 11 Sur 15 Sur -- 1022.7 0 91
2020-01-12 18:00:00 9.3 8 Sur 11 Sur -- 1022.6 -0.5 90
2020-01-12 17:00:00 10.7 8 Sudeste 11 Sudeste -- 1022.7 -0.9 87
2020-01-12 16:00:00 12 5 Sudeste 9 Este -- 1022.7 -1.8 84
2020-01-12 15:00:00 10.5 4 Sudoeste 7 Sur -- 1023.1 -2.2 87
2020-01-12 14:00:00 10.5 4 Sur 6 Sur -- 1023.6 -1.7 88
2020-01-12 13:00:00 10.2 3 Sur 5 Sur -- 1024.5 -0.3 87
2020-01-12 12:00:00 10.2 0 Calma 9 Sur -- 1025.3 1.3 87
2020-01-12 11:00:00 8.6 4 Sudoeste 13 Sudoeste -- 1025.3 1.3 88
2020-01-12 10:00:00 6.7 6 Sudoeste 10 Sudoeste -- 1024.8 1 89
2020-01-12 09:00:00 6.1 6 Sudoeste 10 Sudoeste -- 1024 0.4 93
2020-01-12 08:00:00 5.5 5 Sudoeste 8 Sudoeste -- 1024 0.5 88
2020-01-12 07:00:00 5.6 6 Sudoeste 10 Sudoeste -- 1023.8 0.3 88
2020-01-12 06:00:00 6.3 3 Sudoeste 12 Sur -- 1023.6 0.1 86
2020-01-12 05:00:00 7 3 Sur 15 Oeste -- 1023.5 0.1 80
2020-01-12 04:00:00 8.9 7 Oeste 20 Noroeste -- 1023.5 0.1 74
2020-01-12 03:00:00 9.1 10 Oeste 21 Noroeste -- 1023.5 -0.2 73
2020-01-12 02:00:00 6.6 2 Noroeste 8 Noroeste -- 1023.4 -0.2 93
2020-01-12 01:00:00 4.7 2 Sur 13 Sudoeste -- 1023.4 -0.3 94
2020-01-12 00:00:00 4.7 5 Sudoeste 10 Sur -- 1023.7 -0.2 94
2020-01-11 23:00:00 5.5 5 Sur 13 Sur -- 1023.6 -0.4 93
2020-01-11 22:00:00 6.3 9 Sur 16 Sur -- 1023.7 0 91
2020-01-11 21:00:00 7.1 10 Sur 15 Sur -- 1023.9 0.1 90
2020-01-11 20:00:00 8 10 Sur 17 Sur -- 1024 0.6 87
2020-01-11 19:00:00 8 12 Sur 17 Sur -- 1023.7 0.3 86
2020-01-11 18:00:00 9.1 8 Sur 14 Sudeste -- 1023.8 0.3 81
2020-01-11 17:00:00 10.1 5 Este 17 Sudeste -- 1023.4 -1 78
2020-01-11 16:00:00 11.2 6 Sudeste 16 Sudeste -- 1023.4 -2.1 76
2020-01-11 15:00:00 11 7 Sudeste 20 Este -- 1023.5 -3 79
2020-01-11 14:00:00 10.7 5 Sudeste 17 Sudeste -- 1024.4 -2.4 80
2020-01-11 13:00:00 10.7 5 Sudeste 13 Este -- 1025.5 -1 82
2020-01-11 12:00:00 10.4 8 Sudeste 15 Sudeste -- 1026.5 0 83
2020-01-11 11:00:00 9.1 10 Sur 13 Sur -- 1026.8 0.3 90
2020-01-11 10:00:00 8.2 9 Sur 15 Sur -- 1026.5 -0.2 91
2020-01-11 09:00:00 7.5 9 Sur 15 Sur -- 1026.5 -0.1 94
2020-01-11 08:00:00 7.1 9 Sur 14 Sur -- 1026.5 0 94
2020-01-11 07:00:00 7.3 5 Sur 14 Sudoeste -- 1026.7 -0.1 94
2020-01-11 06:00:00 8.3 8 Oeste 13 Noroeste -- 1026.6 -0.3 94
2020-01-11 05:00:00 7.5 9 Sur 16 Sur -- 1026.5 -0.3 93
2020-01-11 04:00:00 6.5 8 Sur 14 Sur -- 1026.8 -0.3 93
2020-01-11 03:00:00 8.7 8 Oeste 13 Sur -- 1026.9 -0.1 86
2020-01-11 02:00:00 7.8 8 Sur 14 Sur -- 1026.8 -0.1 92
2020-01-11 01:00:00 8.5 10 Sur 18 Sur -- 1027.1 0.2 91
2020-01-11 00:00:00 7.5 11 Sur 16 Sur -- 1027 0.1 93
2020-01-10 23:00:00 8.9 10 Sur 19 Sudeste -- 1026.9 0.2 90
2020-01-10 22:00:00 9.8 11 Sudeste 16 Sudeste -- 1026.9 0.8 87
2020-01-10 21:00:00 10.8 5 Este 21 Nordeste -- 1026.9 1.5 86
2020-01-10 20:00:00 11 11 Nordeste 20 Nordeste -- 1026.7 1.6 84
2020-01-10 19:00:00 10.9 12 Norte 25 Norte -- 1026.1 1.5 79
2020-01-10 18:00:00 11.1 18 Norte 30 Norte -- 1025.4 1.5 79
2020-01-10 17:00:00 11.1 18 Noroeste 31 Norte -- 1025.1 1.4 85
2020-01-10 16:00:00 10.5 27 Norte 43 Norte -- 1024.6 1.3 81
2020-01-10 15:00:00 11.6 30 Noroeste 70 Norte -- 1023.9 0.3 83
2020-01-10 14:00:00 11.2 35 Noroeste 71 Noroeste -- 1023.7 0.8 82
2020-01-10 13:00:00 11.2 40 Noroeste 71 Noroeste -- 1023.3 0.7 86
2020-01-10 12:00:00 11 39 Noroeste 55 Noroeste -- 1023.6 1.2 90
2020-01-10 11:00:00 10.5 45 Noroeste 57 Noroeste -- 1022.9 1 93
2020-01-10 10:00:00 9.9 19 Oeste 41 Oeste -- 1022.6 1.1 90
2020-01-10 09:00:00 9.5 16 Oeste 73 Oeste -- 1022.4 1.5 90
2020-01-10 08:00:00 9.4 19 Oeste 42 Oeste -- 1021.9 1.6 89
2020-01-10 07:00:00 9.6 21 Oeste 39 Oeste -- 1021.5 1.6 90
2020-01-10 06:00:00 8.9 19 Oeste 39 Oeste -- 1020.9 0.9 91
2020-01-10 05:00:00 9.3 16 Oeste 43 Noroeste -- 1020.3 0.6 90
2020-01-10 04:00:00 9.8 18 Oeste 48 Noroeste -- 1019.9 0.8 83
2020-01-10 03:00:00 10.1 19 Oeste 37 Oeste -- 1020 1 83
2020-01-10 02:00:00 9.6 22 Oeste 63 Noroeste -- 1019.7 1 87
2020-01-10 01:00:00 10.8 19 Noroeste 61 Noroeste -- 1019.1 1.1 80
2020-01-10 00:00:00 11.1 14 Oeste 37 Oeste -- 1019 1.6 74
2020-01-09 23:00:00 11.2 21 Oeste 55 Noroeste -- 1018.7 1.2 78
2020-01-09 22:00:00 11.3 21 Oeste 41 Oeste -- 1018 0.8 81
2020-01-09 21:00:00 11.1 14 Oeste 50 Oeste -- 1017.4 0.4 82
2020-01-09 20:00:00 11.5 29 Oeste 58 Noroeste -- 1017.5 -- 78
2020-01-09 19:00:00 11.6 23 Oeste 52 Oeste -- 1017.2 6 85
2020-01-09 18:00:00 11.2 17 Oeste 98 Noroeste -- 1017 6.5 88
2020-01-09 17:00:00 12.5 74 Noroeste 114 Noroeste -- -- -- 83
2020-01-09 16:00:00 16.7 13 Sur 35 Sur -- 1011.2 -2.1 57
2020-01-09 15:00:00 16.1 18 Sur 37 Sudoeste -- 1010.5 -4.1 55
2020-01-09 14:00:00 16.3 20 Sur 38 Sudeste -- 1011.6 -3.5 54
2020-01-09 13:00:00 16.6 19 Sur 72 Sur -- 1013.3 -1.8 54
2020-01-09 12:00:00 15.1 15 Sur 36 Sur -- 1014.6 -0.7 61
2020-01-09 11:00:00 14.1 23 Sur 38 Sur -- 1015.1 -0.5 64
2020-01-09 10:00:00 12.3 24 Sur 44 Sur -- 1015.1 -1 68
2020-01-09 09:00:00 13.1 25 Sur 40 Sur -- 1015.3 -0.8 61
2020-01-09 08:00:00 12.9 21 Sur 34 Sur -- 1015.6 -1.2 62
2020-01-09 07:00:00 12.8 17 Sur 29 Sudoeste -- 1016.1 -1 64
2020-01-09 06:00:00 10.9 14 Sur 19 Sur -- 1016.1 -1.2 74
2020-01-09 05:00:00 12.4 2 Nordeste 13 Noroeste -- 1016.8 -1.4 73
2020-01-09 04:00:00 12.9 4 Oeste 23 Sudoeste -- 1017.1 -1.7 72
2020-01-09 03:00:00 12.5 15 Sur 26 Sur -- 1017.3 -2.2 66
2020-01-09 02:00:00 10.6 7 Sur 17 Sur -- 1018.2 -1.2 74
2020-01-09 01:00:00 10.5 4 Sur 12 Sur -- 1018.8 -0.8 74
2020-01-09 00:00:00 10.5 4 Sudoeste 14 Sur -- 1019.5 -0.8 82
2020-01-08 23:00:00 9.5 3 Sur 21 Sur -- 1019.4 -1.4 83
2020-01-08 22:00:00 9.4 18 Sur 23 Sur -- 1019.6 -1.7 81
2020-01-08 21:00:00 8.9 12 Sur 19 Sur -- 1020.3 -1.1 86
2020-01-08 20:00:00 9.2 11 Sur 16 Sudeste -- 1020.8 -0.8 91
2020-01-08 19:00:00 9.7 13 Sudeste 17 Sudeste -- 1021.3 -0.2 92
2020-01-08 18:00:00 10.7 11 Sur 14 Sur -- 1021.4 -0.4 94
2020-01-08 17:00:00 12 10 Sudeste 12 Sudeste -- 1021.6 -0.8 93
2020-01-08 16:00:00 13.1 9 Sudeste 15 Sudeste -- 1021.5 -1.6 91
2020-01-08 15:00:00 12.8 7 Sudeste 12 Sudeste -- 1021.8 -2 89
2020-01-08 14:00:00 12.9 4 Sudeste 9 Sudeste -- 1022.4 -1.8 89
2020-01-08 13:00:00 12 2 Sur 5 Sur -- 1023.1 -1.1 90
2020-01-08 12:00:00 11.7 0 Calma 8 Sur -- 1023.8 0 86
2020-01-08 11:00:00 11.7 0 Calma 12 Sur -- 1024.2 0.5 91
2020-01-08 10:00:00 9.5 6 Sur 13 Sur -- 1024.2 0.9 93
2020-01-08 09:00:00 7.8 8 Sur 11 Sur -- 1023.8 0.6 94
2020-01-08 08:00:00 7.5 4 Sur 11 Sur -- 1023.7 0.5 94
2020-01-08 07:00:00 7.9 2 Sur 8 Sur -- 1023.3 -0.2 94
2020-01-08 06:00:00 8.6 3 Sur 10 Sur -- 1023.2 -0.4 93
2020-01-08 05:00:00 8.1 5 Sur 9 Sur -- 1023.2 -0.4 93
2020-01-08 04:00:00 8.1 5 Sur 9 Sur -- 1023.5 -0.6 93
2020-01-08 03:00:00 9 2 Oeste 8 Oeste -- 1023.6 -0.5 93
2020-01-08 02:00:00 10.2 5 Oeste 10 Oeste -- 1023.6 -0.6 92
2020-01-08 01:00:00 9.2 6 Sudoeste 9 Sudoeste -- 1024.1 -0.4 94
2020-01-08 00:00:00 8.2 4 Sudoeste 10 Sudoeste -- 1024.1 -0.3 94
2020-01-07 23:00:00 8.1 6 Sudoeste 12 Sudoeste -- 1024.2 0.1 94
2020-01-07 22:00:00 8.8 8 Sur 13 Sur -- 1024.5 0.5 93
2020-01-07 21:00:00 10 10 Sur 20 Sur -- 1024.4 0.4 91
2020-01-07 20:00:00 10.5 16 Sur 23 Sudeste -- 1024.1 0.3 91
2020-01-07 19:00:00 10.5 16 Sur 21 Sur -- 1024 0.5 91
2020-01-07 18:00:00 10.6 14 Sur 18 Sur -- 1024 0.2 90
2020-01-07 17:00:00 11.2 12 Sudeste 16 Sudeste -- 1023.8 -0.4 88
2020-01-07 16:00:00 12.3 11 Sudeste 13 Sudeste -- 1023.5 -1.3 85
2020-01-07 15:00:00 12 7 Sudeste 14 Sudeste -- 1023.8 -1.8 84
2020-01-07 14:00:00 12.2 6 Sudeste 16 Este -- 1024.2 -2 84
2020-01-07 13:00:00 12.2 8 Sudeste 21 Sudeste -- 1024.8 -1 82
2020-01-07 12:00:00 11.4 15 Sudeste 23 Sur -- 1025.6 0.5 82
2020-01-07 11:00:00 10.2 15 Sur 21 Sur -- 1026.2 1.6 84
2020-01-07 10:00:00 9.6 12 Sur 21 Sur -- 1025.8 1 86
2020-01-07 09:00:00 8.1 13 Sur 21 Sur -- 1025.1 0.2 89
2020-01-07 08:00:00 7.9 15 Sur 22 Sur -- 1024.6 -0.5 89
2020-01-07 07:00:00 8.4 12 Sur 18 Sur -- 1024.8 -0.3 89
2020-01-07 06:00:00 7.7 12 Sur 19 Sur -- 1024.9 0.2 92
2020-01-07 05:00:00 8 9 Sur 16 Sur -- 1025.1 0.3 91
2020-01-07 04:00:00 8.3 10 Sur 15 Sur -- 1025.1 -0.6 91
2020-01-07 03:00:00 8.3 10 Sur 20 Sur -- 1024.7 -1 90
2020-01-07 02:00:00 7.8 13 Sur 22 Sur -- 1024.8 -0.6 92
2020-01-07 01:00:00 8.9 8 Sudoeste 15 Oeste -- 1025.7 0.6 90
2020-01-07 00:00:00 9.7 5 Sudoeste 16 Sudoeste -- 1025.7 0.7 90
2020-01-06 23:00:00 9.1 12 Sudoeste 24 Sudoeste -- 1025.4 0.3 91
2020-01-06 22:00:00 9.3 13 Sur 19 Sur -- 1025.1 1 90
2020-01-06 21:00:00 9.5 8 Sudoeste 20 Oeste -- 1025 2.3 90
2020-01-06 20:00:00 10.4 14 Oeste 24 Oeste -- 1025.1 2.5 89
2020-01-06 19:00:00 9.9 9 Oeste 17 Sur -- 1024.1 3 90
2020-01-06 18:00:00 10.1 11 Sur 26 Noroeste -- 1022.7 2.2 88
2020-01-06 17:00:00 10.9 20 Noroeste 64 Oeste -- 1022.6 1.8 89
2020-01-06 16:00:00 11.1 33 Noroeste 71 Noroeste -- 1021.1 -0.3 90
2020-01-06 15:00:00 11 32 Noroeste 44 Noroeste -- 1020.5 -1.5 90
2020-01-06 14:00:00 10.4 16 Noroeste 22 Noroeste -- 1020.8 -1.5 86
2020-01-06 13:00:00 9.9 11 Oeste 17 Noroeste -- 1021.4 -0.5 74
2020-01-06 12:00:00 9.3 10 Oeste 16 Oeste -- 1022 1 67
2020-01-06 11:00:00 7.8 8 Oeste 15 Oeste -- 1022.3 1.8 75
2020-01-06 10:00:00 7.3 5 Sudoeste 7 Sudoeste -- 1021.9 2.4 83